Time;durP1;ratioP1;P1;durP2;ratioP2;P2;SDS_P1;SDS_P2;PMS_P1;PMS_P2;Temp;Humidity;BMP_temperature;BMP_pressure;BME280_temperature;BME280_humidity;BME280_pressure;Samples;Min_cycle;Max_cycle;Signal;HPM_P1;HPM_P2
2021/01/16 00:02:22;;;;;;;12.40;11.10;;;10.90;99.90;;;;;;5097126;28;20601;-32
2021/01/16 00:04:52;;;;;;;12.48;10.55;;;11.00;99.90;;;;;;5113342;28;20480;-32
2021/01/16 00:07:23;;;;;;;11.48;9.32;;;11.00;99.90;;;;;;5108286;28;20334;-33
2021/01/16 00:09:54;;;;;;;10.77;9.68;;;10.90;99.90;;;;;;5109226;27;20207;-33
2021/01/16 00:12:24;;;;;;;11.68;10.48;;;11.00;99.90;;;;;;5106106;28;20210;-37
2021/01/16 00:14:54;;;;;;;13.60;10.30;;;10.90;99.90;;;;;;5112984;28;20188;-36
2021/01/16 00:17:24;;;;;;;11.02;9.93;;;10.90;99.90;;;;;;5112994;27;20447;-33
2021/01/16 00:19:54;;;;;;;11.40;10.20;;;10.80;99.90;;;;;;5106897;27;20191;-33
2021/01/16 00:22:24;;;;;;;10.83;9.57;;;11.00;99.90;;;;;;5110716;28;20447;-31
2021/01/16 00:24:58;;;;;;;12.10;10.20;;;11.00;99.90;;;;;;5111733;28;20448;-32
2021/01/16 00:27:29;;;;;;;11.77;9.47;;;10.90;99.90;;;;;;5111804;28;20440;-32
2021/01/16 00:29:59;;;;;;;11.60;9.90;;;10.90;99.90;;;;;;5110108;28;20449;-34
2021/01/16 00:32:28;;;;;;;11.20;10.10;;;10.90;99.90;;;;;;5112234;28;20459;-33
2021/01/16 00:34:59;;;;;;;12.27;10.60;;;10.90;99.90;;;;;;5111704;28;20497;-33
2021/01/16 00:37:29;;;;;;;10.70;9.43;;;10.90;99.90;;;;;;5108327;28;20490;-33
2021/01/16 00:40:00;;;;;;;10.30;9.20;;;10.90;99.90;;;;;;5101339;28;21016;-34
2021/01/16 00:42:30;;;;;;;13.35;11.82;;;10.80;99.90;;;;;;5110375;28;20451;-32
2021/01/16 00:45:00;;;;;;;15.77;12.87;;;10.90;99.90;;;;;;5110969;28;20668;-31
2021/01/16 00:47:30;;;;;;;14.17;11.80;;;10.90;99.90;;;;;;5108565;28;20459;-31
2021/01/16 00:50:00;;;;;;;12.40;11.13;;;10.90;99.90;;;;;;5111785;27;20492;-33
2021/01/16 00:52:30;;;;;;;12.00;10.87;;;10.90;99.90;;;;;;5111543;28;20448;-30
2021/01/16 00:55:01;;;;;;;12.40;11.10;;;10.80;99.90;;;;;;5111050;28;21029;-35
2021/01/16 00:57:31;;;;;;;11.47;10.27;;;10.80;99.90;;;;;;5100919;28;20444;-31
2021/01/16 01:00:01;;;;;;;13.27;11.75;;;10.70;99.90;;;;;;5112023;28;20532;-33
2021/01/16 01:02:32;;;;;;;12.20;10.20;;;10.60;99.90;;;;;;5105408;28;20204;-31
2021/01/16 01:05:02;;;;;;;11.90;10.60;;;10.50;99.90;;;;;;5111628;28;20234;-38
2021/01/16 01:07:32;;;;;;;12.03;10.50;;;10.50;99.90;;;;;;5111844;28;20515;-34
2021/01/16 01:10:06;;;;;;;11.73;10.52;;;10.60;99.90;;;;;;5112236;27;20458;-30
2021/01/16 01:12:39;;;;;;;237.98;44.08;;;10.50;99.90;;;;;;5110810;28;20201;-30
2021/01/16 01:15:10;;;;;;;324.17;51.20;;;10.50;99.90;;;;;;5112048;28;20568;-34
2021/01/16 01:17:40;;;;;;;12.40;11.07;;;10.40;99.90;;;;;;5111671;28;20593;-30
2021/01/16 01:20:11;;;;;;;13.50;11.17;;;10.30;99.90;;;;;;5111754;28;20262;-29
2021/01/16 01:22:41;;;;;;;14.32;10.57;;;10.10;99.90;;;;;;5111480;28;20467;-32
2021/01/16 01:25:14;;;;;;;15.30;10.35;;;10.00;99.90;;;;;;5111503;28;20217;-33
2021/01/16 01:27:45;;;;;;;15.90;12.02;;;10.00;99.90;;;;;;5111285;28;20221;-34
2021/01/16 01:30:16;;;;;;;12.93;11.65;;;9.80;99.90;;;;;;5111253;28;20212;-33
2021/01/16 01:32:46;;;;;;;12.85;11.50;;;9.70;99.90;;;;;;5107495;28;20649;-33
2021/01/16 01:35:18;;;;;;;12.32;10.95;;;9.70;99.90;;;;;;5093535;28;20216;-29
2021/01/16 01:37:50;;;;;;;12.95;10.75;;;9.60;99.90;;;;;;5103107;28;20199;-29
2021/01/16 01:40:23;;;;;;;14.25;12.75;;;9.50;99.90;;;;;;5098032;28;20194;-33
2021/01/16 01:42:55;;;;;;;11.02;10.00;;;9.40;99.90;;;;;;5104688;28;20221;-28
2021/01/16 01:45:25;;;;;;;12.75;11.45;;;9.30;99.90;;;;;;5094232;28;20200;-33
2021/01/16 01:47:55;;;;;;;13.45;12.05;;;9.20;99.90;;;;;;5093497;28;20237;-35
2021/01/16 01:50:25;;;;;;;14.90;12.07;;;9.10;99.90;;;;;;5100457;28;20225;-33
2021/01/16 01:52:57;;;;;;;14.25;11.73;;;9.00;99.90;;;;;;5099098;28;20274;-34
2021/01/16 01:55:29;;;;;;;13.82;12.00;;;8.90;99.90;;;;;;5089264;28;20194;-33
2021/01/16 01:58:01;;;;;;;13.65;11.27;;;8.90;99.90;;;;;;5097341;28;20246;-34
2021/01/16 02:00:31;;;;;;;14.20;11.68;;;8.80;99.90;;;;;;5096577;28;20263;-33
2021/01/16 02:03:02;;;;;;;17.65;13.68;;;8.70;99.90;;;;;;5104208;28;20357;-34
2021/01/16 02:05:32;;;;;;;127.63;29.33;;;8.80;99.90;;;;;;5096433;28;20245;-30
2021/01/16 02:08:02;;;;;;;71.28;21.13;;;8.70;99.90;;;;;;5099174;28;20252;-33
2021/01/16 02:10:34;;;;;;;55.35;19.65;;;8.70;99.90;;;;;;5110342;28;20332;-30
2021/01/16 02:13:04;;;;;;;13.88;12.48;;;8.70;99.90;;;;;;5095447;28;20210;-30
2021/01/16 02:15:41;;;;;;;14.50;13.00;;;8.60;99.90;;;;;;5110753;28;20658;-32
2021/01/16 02:18:19;;;;;;;16.40;13.35;;;8.50;99.90;;;;;;5105950;28;20294;-30
2021/01/16 02:20:49;;;;;;;16.33;13.20;;;8.40;99.90;;;;;;5095583;28;20289;-33
2021/01/16 02:23:34;;;;;;;18.73;15.27;;;8.30;99.90;;;;;;5104728;28;20272;-31
2021/01/16 02:26:48;;;;;;;21.05;16.25;;;8.30;99.90;;;;;;5109789;28;20180;-35
2021/01/16 02:29:20;;;;;;;20.10;15.30;;;8.20;99.90;;;;;;5110151;28;20187;-28
2021/01/16 02:31:56;;;;;;;20.42;14.98;;;8.20;99.90;;;;;;5093478;28;20663;-32
2021/01/16 02:34:30;;;;;;;18.45;15.73;;;8.20;99.90;;;;;;5094418;28;20244;-32
2021/01/16 02:37:30;;;;;;;20.73;16.27;;;8.00;99.90;;;;;;5106463;28;20380;-34
2021/01/16 02:40:09;;;;;;;18.92;16.92;;;8.00;99.90;;;;;;5096743;28;20185;-34
2021/01/16 02:42:46;;;;;;;24.05;19.70;;;8.00;99.90;;;;;;5101056;28;20246;-33
2021/01/16 02:45:21;;;;;;;22.08;18.63;;;7.90;99.90;;;;;;5099740;28;20185;-28
2021/01/16 02:48:05;;;;;;;30.20;27.00;;;7.90;99.90;;;;;;5092490;28;20189;-31
2021/01/16 02:50:42;;;;;;;25.48;22.80;;;7.80;99.90;;;;;;5094634;28;20219;-30
2021/01/16 02:53:13;;;;;;;29.08;25.33;;;7.70;99.90;;;;;;5096214;28;20216;-35
2021/01/16 02:55:44;;;;;;;26.45;23.52;;;7.60;99.90;;;;;;5103290;28;20288;-32
2021/01/16 02:58:14;;;;;;;27.42;24.52;;;7.60;99.90;;;;;;5092823;28;20200;-33
2021/01/16 03:00:45;;;;;;;28.77;24.42;;;7.60;99.90;;;;;;5097410;28;20608;-31
2021/01/16 03:03:15;;;;;;;29.20;26.00;;;7.60;99.90;;;;;;5095536;28;20211;-39
2021/01/16 03:05:46;;;;;;;25.55;22.85;;;7.50;99.90;;;;;;5096318;28;20227;-33
2021/01/16 03:08:16;;;;;;;24.67;21.48;;;7.50;99.90;;;;;;5094392;28;20193;-33
2021/01/16 03:10:48;;;;;;;27.20;21.00;;;7.50;99.90;;;;;;5094769;28;20220;-29
2021/01/16 03:13:18;;;;;;;24.45;20.63;;;7.40;99.90;;;;;;5102683;28;20273;-31
2021/01/16 03:15:51;;;;;;;624.08;128.93;;;7.30;99.90;;;;;;5095520;28;20200;-33
2021/01/16 03:18:25;;;;;;;618.33;121.13;;;7.30;99.90;;;;;;5099261;28;20195;-32
2021/01/16 03:20:57;;;;;;;1999.90;719.38;;;7.40;99.90;;;;;;5095611;28;20188;-29
2021/01/16 03:23:27;;;;;;;35.45;27.55;;;7.50;99.90;;;;;;5103073;28;20191;-31
2021/01/16 03:25:57;;;;;;;34.25;28.85;;;7.40;99.90;;;;;;5094853;28;20185;-34
2021/01/16 03:28:27;;;;;;;35.45;29.13;;;7.30;99.90;;;;;;5102155;28;20218;-29
2021/01/16 03:30:58;;;;;;;32.92;26.90;;;7.30;99.90;;;;;;5106274;28;20195;-29
2021/01/16 03:33:28;;;;;;;29.45;23.75;;;7.20;99.90;;;;;;5095707;28;20329;-33
2021/01/16 03:35:58;;;;;;;30.20;26.80;;;7.10;99.90;;;;;;5097658;28;20757;-32
2021/01/16 03:38:28;;;;;;;29.02;24.52;;;7.10;99.90;;;;;;5093610;28;20235;-31
2021/01/16 03:40:58;;;;;;;33.83;26.08;;;7.30;99.90;;;;;;5097238;28;20271;-32
2021/01/16 03:43:28;;;;;;;29.30;26.02;;;7.30;99.90;;;;;;5090755;28;20216;-33
2021/01/16 03:46:00;;;;;;;33.47;27.55;;;7.30;99.90;;;;;;5102122;28;20236;-33
2021/01/16 03:48:30;;;;;;;38.15;32.67;;;7.40;99.90;;;;;;5106572;28;20192;-33
2021/01/16 03:51:00;;;;;;;41.85;32.05;;;7.40;99.90;;;;;;5100918;28;20218;-34
2021/01/16 03:53:30;;;;;;;35.15;31.55;;;7.50;99.90;;;;;;5089505;28;20243;-31
2021/01/16 03:56:00;;;;;;;35.45;31.75;;;7.50;99.90;;;;;;5096607;28;20299;-31
2021/01/16 03:58:31;;;;;;;33.05;29.67;;;7.60;99.90;;;;;;5094626;28;20197;-32
2021/01/16 04:01:02;;;;;;;999.40;199.75;;;7.70;99.90;;;;;;5096352;28;20200;-37
2021/01/16 04:03:32;;;;;;;1999.90;667.22;;;7.80;99.90;;;;;;5094571;28;20193;-33
2021/01/16 04:06:03;;;;;;;45.00;39.92;;;8.00;99.90;;;;;;5094384;28;20220;-31
2021/01/16 04:08:33;;;;;;;155.13;59.13;;;8.00;99.90;;;;;;5093482;28;20940;-29
2021/01/16 04:11:03;;;;;;;59.40;49.50;;;7.90;99.90;;;;;;5097595;28;20249;-33
2021/01/16 04:13:33;;;;;;;126.75;78.50;;;8.00;99.90;;;;;;5103278;28;20299;-36
2021/01/16 04:16:05;;;;;;;89.82;59.70;;;8.00;99.90;;;;;;5099848;28;20886;-32
2021/01/16 04:18:35;;;;;;;83.70;53.25;;;8.00;99.90;;;;;;5090584;28;20200;-32
2021/01/16 04:21:06;;;;;;;70.80;47.45;;;7.90;99.90;;;;;;5095601;28;20696;-33
2021/01/16 04:23:36;;;;;;;88.70;56.38;;;7.90;99.90;;;;;;5097605;28;20212;-28
2021/01/16 04:26:06;;;;;;;79.07;52.88;;;8.00;99.90;;;;;;5100251;28;20518;-36
2021/01/16 04:28:36;;;;;;;67.55;50.35;;;8.00;99.90;;;;;;5100018;28;20218;-34
2021/01/16 04:31:07;;;;;;;62.40;51.20;;;8.00;99.90;;;;;;5098357;28;20200;-31
2021/01/16 04:33:37;;;;;;;56.65;47.40;;;8.10;99.90;;;;;;5091227;28;20209;-32
2021/01/16 04:36:08;;;;;;;66.45;52.65;;;8.10;99.90;;;;;;5098220;28;20186;-33
2021/01/16 04:38:38;;;;;;;69.88;52.95;;;8.00;99.90;;;;;;5099971;28;20192;-33
2021/01/16 04:41:10;;;;;;;69.30;58.17;;;8.10;99.90;;;;;;5102863;28;20213;-33
2021/01/16 04:43:40;;;;;;;69.63;57.50;;;8.20;99.90;;;;;;5106126;28;20201;-31
2021/01/16 04:46:13;;;;;;;75.63;60.63;;;8.20;99.90;;;;;;5100842;28;20330;-30
2021/01/16 04:48:48;;;;;;;58.88;52.65;;;8.40;99.90;;;;;;5111555;28;20245;-32
2021/01/16 04:51:19;;;;;;;973.42;217.60;;;8.40;99.90;;;;;;5103225;28;20219;-33
2021/01/16 04:53:51;;;;;;;1999.90;677.55;;;8.60;99.90;;;;;;5109152;28;20260;-30
2021/01/16 04:56:21;;;;;;;319.98;89.60;;;8.60;99.90;;;;;;5098400;27;20196;-31
2021/01/16 04:58:52;;;;;;;534.47;124.35;;;8.50;99.90;;;;;;5103949;28;20192;-35
2021/01/16 05:01:26;;;;;;;55.75;49.97;;;8.50;99.90;;;;;;5103033;28;20717;-28
2021/01/16 05:03:58;;;;;;;60.63;51.70;;;8.60;99.90;;;;;;5100343;28;20262;-30
2021/01/16 05:06:29;;;;;;;51.75;46.38;;;8.50;99.90;;;;;;5098013;28;20200;-31
2021/01/16 05:09:00;;;;;;;55.63;49.10;;;8.50;99.90;;;;;;5099948;28;20192;-32
2021/01/16 05:11:42;;;;;;;51.67;46.05;;;8.50;99.90;;;;;;5098012;28;20196;-29
2021/01/16 05:14:17;;;;;;;52.38;46.75;;;8.50;99.90;;;;;;5096431;28;20650;-27
2021/01/16 05:16:56;;;;;;;51.28;46.17;;;8.60;99.90;;;;;;5095663;28;20712;-30
2021/01/16 05:19:29;;;;;;;54.47;48.67;;;8.60;99.90;;;;;;5104833;28;20288;-33
2021/01/16 05:21:59;;;;;;;56.58;50.47;;;8.70;99.90;;;;;;5098709;28;20704;-28
2021/01/16 05:24:29;;;;;;;61.17;54.60;;;8.70;99.90;;;;;;5098401;28;20261;-31
2021/01/16 05:27:02;;;;;;;56.83;50.83;;;8.70;99.90;;;;;;5100790;28;20198;-32
2021/01/16 05:29:33;;;;;;;52.88;47.47;;;8.80;99.90;;;;;;5093471;28;20201;-31
2021/01/16 05:32:06;;;;;;;55.33;49.38;;;8.70;99.90;;;;;;5106473;28;20264;-33
2021/01/16 05:34:36;;;;;;;54.80;49.05;;;8.70;99.90;;;;;;5100079;28;20306;-29
2021/01/16 05:37:07;;;;;;;50.15;43.60;;;8.80;99.90;;;;;;5095719;28;20201;-34
2021/01/16 05:39:37;;;;;;;46.42;41.05;;;8.70;99.90;;;;;;5102563;28;20199;-34
2021/01/16 05:42:08;;;;;;;46.55;41.65;;;8.70;99.90;;;;;;5108975;28;20209;-30
2021/01/16 05:44:40;;;;;;;41.58;37.15;;;8.70;99.90;;;;;;5105379;28;20241;-31
2021/01/16 05:47:11;;;;;;;43.25;37.50;;;8.80;99.90;;;;;;5100276;28;20704;-30
2021/01/16 05:49:42;;;;;;;39.42;35.05;;;8.90;99.90;;;;;;5106273;28;20303;-32
2021/01/16 05:52:12;;;;;;;39.47;35.15;;;9.00;99.90;;;;;;5095211;28;20192;-34
2021/01/16 05:54:43;;;;;;;39.88;35.65;;;9.00;99.90;;;;;;5103418;28;20230;-28
2021/01/16 05:57:18;;;;;;;43.17;38.50;;;9.00;99.90;;;;;;5090596;28;20193;-30
2021/01/16 05:59:50;;;;;;;43.55;38.53;;;9.00;99.90;;;;;;5096664;28;20204;-32
2021/01/16 06:02:24;;;;;;;44.35;37.85;;;8.90;99.90;;;;;;5095598;28;20217;-29
2021/01/16 06:04:57;;;;;;;38.97;34.72;;;9.10;99.90;;;;;;5098991;28;20322;-30
2021/01/16 06:07:27;;;;;;;39.90;35.60;;;9.20;99.90;;;;;;5092761;28;20261;-32
2021/01/16 06:09:57;;;;;;;41.45;36.85;;;9.10;99.90;;;;;;5097854;28;20196;-33
2021/01/16 06:12:31;;;;;;;38.88;34.85;;;9.00;99.90;;;;;;5093944;28;20526;-32
2021/01/16 06:15:03;;;;;;;37.35;32.88;;;9.00;99.90;;;;;;5099719;28;20231;-33
2021/01/16 06:17:36;;;;;;;36.17;32.35;;;9.10;99.90;;;;;;5093364;28;20247;-30
2021/01/16 06:20:10;;;;;;;34.85;30.73;;;9.10;99.90;;;;;;5092942;28;20204;-31
2021/01/16 06:22:43;;;;;;;34.35;30.83;;;9.10;99.90;;;;;;5097524;28;20200;-34
2021/01/16 06:25:24;;;;;;;42.05;37.45;;;9.20;99.90;;;;;;5096375;28;20201;-31
2021/01/16 06:27:54;;;;;;;42.55;37.35;;;9.10;99.90;;;;;;5102056;28;20627;-31
2021/01/16 06:30:25;;;;;;;38.22;34.13;;;9.10;99.90;;;;;;5099612;28;20272;-30
2021/01/16 06:32:56;;;;;;;38.80;33.65;;;9.10;99.90;;;;;;5094827;28;20216;-30
2021/01/16 06:35:30;;;;;;;34.58;31.00;;;9.10;99.90;;;;;;5094681;28;20235;-27
2021/01/16 06:38:04;;;;;;;26.85;24.30;;;9.10;99.90;;;;;;5091174;28;20207;-27
2021/01/16 06:40:35;;;;;;;25.00;20.40;;;9.20;99.90;;;;;;5092227;28;20645;-30
2021/01/16 06:43:17;;;;;;;21.40;19.10;;;9.10;99.90;;;;;;5098268;28;20207;-34
2021/01/16 06:45:47;;;;;;;21.95;19.85;;;9.10;99.90;;;;;;5097273;28;20196;-31
2021/01/16 06:48:18;;;;;;;21.55;19.45;;;9.20;99.90;;;;;;5097167;28;20201;-32
2021/01/16 06:50:49;;;;;;;22.63;20.30;;;9.10;99.90;;;;;;5103191;28;20227;-35
2021/01/16 06:53:27;;;;;;;20.27;18.25;;;9.10;99.90;;;;;;5095967;28;20200;-35
2021/01/16 06:56:08;;;;;;;21.70;19.45;;;9.20;99.90;;;;;;5098836;28;20265;-32
2021/01/16 06:58:43;;;;;;;16.50;14.80;;;9.20;99.90;;;;;;5091235;28;20193;-33
2021/01/16 07:01:14;;;;;;;20.02;18.02;;;9.20;99.90;;;;;;5094744;28;20209;-34
2021/01/16 07:03:49;;;;;;;19.85;18.05;;;9.20;99.90;;;;;;5096006;28;20202;-30
2021/01/16 07:06:19;;;;;;;22.63;20.38;;;9.20;99.90;;;;;;5095785;28;20273;-29
2021/01/16 07:08:51;;;;;;;22.05;19.83;;;9.20;99.90;;;;;;5094529;28;20215;-32
2021/01/16 07:11:22;;;;;;;22.33;20.02;;;9.20;99.90;;;;;;5098391;28;20541;-34
2021/01/16 07:13:52;;;;;;;16.50;14.90;;;9.20;99.90;;;;;;5096243;28;20196;-32
2021/01/16 07:16:22;;;;;;;16.20;14.52;;;9.30;99.90;;;;;;5094496;28;20209;-28
2021/01/16 07:18:54;;;;;;;15.10;13.20;;;9.30;99.90;;;;;;5095400;28;20600;-34
2021/01/16 07:21:24;;;;;;;13.77;12.38;;;9.30;99.90;;;;;;5098086;28;20209;-31
2021/01/16 07:23:54;;;;;;;14.05;12.55;;;9.30;99.90;;;;;;5103215;28;20320;-36
2021/01/16 07:26:24;;;;;;;13.80;12.50;;;9.30;99.90;;;;;;5092075;28;20206;-33
2021/01/16 07:28:56;;;;;;;13.60;12.30;;;9.20;99.90;;;;;;5098213;28;20207;-36
2021/01/16 07:31:31;;;;;;;19.60;15.23;;;9.20;99.90;;;;;;5096814;28;20232;-34
2021/01/16 07:34:03;;;;;;;15.40;13.90;;;9.20;99.90;;;;;;5091861;28;20310;-31
2021/01/16 07:36:35;;;;;;;15.82;14.20;;;9.20;99.90;;;;;;5098525;28;20193;-31
2021/01/16 07:39:07;;;;;;;13.85;12.55;;;9.10;99.90;;;;;;5100588;28;20324;-31
2021/01/16 07:41:39;;;;;;;15.45;13.65;;;9.10;99.90;;;;;;5091782;28;20193;-34
2021/01/16 07:44:11;;;;;;;18.00;14.45;;;9.10;99.90;;;;;;5095510;28;20273;-33
2021/01/16 07:46:43;;;;;;;11.13;9.60;;;9.20;99.90;;;;;;5099516;28;20615;-31
2021/01/16 07:49:20;;;;;;;13.15;11.55;;;9.30;99.90;;;;;;5101544;28;20615;-29
2021/01/16 07:51:55;;;;;;;13.88;12.50;;;9.30;99.90;;;;;;5092546;28;20201;-29
2021/01/16 07:54:30;;;;;;;12.27;11.18;;;9.30;99.90;;;;;;5097930;28;20208;-33
2021/01/16 07:57:03;;;;;;;13.02;11.73;;;9.30;99.90;;;;;;5095578;28;20560;-31
2021/01/16 07:59:42;;;;;;;11.60;10.40;;;9.40;99.90;;;;;;5094150;28;20193;-31
2021/01/16 08:02:28;;;;;;;13.65;11.65;;;9.30;99.90;;;;;;5093070;28;20576;-29
2021/01/16 08:05:26;;;;;;;10.93;9.80;;;9.30;99.90;;;;;;5105256;28;20608;-31
2021/01/16 08:08:21;;;;;;;10.88;8.88;;;9.30;99.90;;;;;;5095391;28;20219;-33
2021/01/16 08:10:56;;;;;;;10.18;9.18;;;9.40;99.90;;;;;;5105041;28;20190;-30
2021/01/16 08:13:26;;;;;;;10.00;9.10;;;9.40;99.90;;;;;;5113148;28;20195;-29
2021/01/16 08:16:03;;;;;;;10.35;9.35;;;9.40;99.90;;;;;;5111522;28;20619;-32
2021/01/16 08:18:34;;;;;;;9.95;8.52;;;9.30;99.90;;;;;;5099305;28;20204;-32
2021/01/16 08:21:11;;;;;;;9.48;8.48;;;9.30;99.90;;;;;;5096119;28;20181;-32
2021/01/16 08:23:49;;;;;;;8.32;7.53;;;9.40;99.90;;;;;;5100677;28;20609;-30
2021/01/16 08:26:21;;;;;;;9.13;8.30;;;9.30;99.90;;;;;;5096021;28;20620;-33
2021/01/16 08:28:57;;;;;;;11.45;9.50;;;9.30;99.90;;;;;;5097244;28;20572;-29
2021/01/16 08:31:31;;;;;;;10.90;9.10;;;9.30;99.90;;;;;;5094508;28;20185;-28
2021/01/16 08:34:01;;;;;;;11.02;10.02;;;9.30;99.90;;;;;;5096919;28;20184;-34
2021/01/16 08:36:35;;;;;;;12.60;9.68;;;9.30;99.90;;;;;;5101577;28;20614;-32
2021/01/16 08:39:27;;;;;;;10.88;9.80;;;9.30;99.90;;;;;;5112850;28;20253;-34
2021/01/16 08:42:07;;;;;;;9.50;8.65;;;9.30;99.90;;;;;;5111809;28;20260;-29
2021/01/16 08:44:53;;;;;;;9.63;8.65;;;9.30;99.90;;;;;;5108175;28;20224;-31
2021/01/16 08:47:23;;;;;;;9.65;8.75;;;9.10;99.90;;;;;;5103872;28;20207;-33
2021/01/16 08:49:53;;;;;;;8.63;7.72;;;9.20;99.90;;;;;;5103470;28;20217;-31
2021/01/16 08:52:36;;;;;;;7.63;6.85;;;9.10;99.90;;;;;;5097054;28;20677;-29
2021/01/16 08:55:08;;;;;;;7.10;6.53;;;9.20;99.90;;;;;;5104569;28;20217;-30
2021/01/16 08:57:38;;;;;;;6.88;6.28;;;9.30;99.90;;;;;;5098059;28;20724;-31
2021/01/16 09:00:20;;;;;;;5.80;5.30;;;9.30;99.90;;;;;;5095859;28;20274;-27
2021/01/16 09:03:13;;;;;;;6.10;5.50;;;9.30;99.90;;;;;;5098940;28;20575;-33
2021/01/16 09:05:44;;;;;;;7.30;6.65;;;9.20;99.90;;;;;;5103188;28;20235;-30
2021/01/16 09:08:23;;;;;;;7.03;6.20;;;9.10;99.90;;;;;;5098320;28;20253;-32
2021/01/16 09:10:55;;;;;;;8.15;6.88;;;9.10;99.90;;;;;;5099843;28;20223;-33
2021/01/16 09:13:29;;;;;;;7.55;6.85;;;9.10;99.90;;;;;;5104495;28;20212;-32
2021/01/16 09:16:00;;;;;;;8.82;7.18;;;9.20;99.90;;;;;;5098120;28;20271;-28
2021/01/16 09:18:30;;;;;;;8.15;7.20;;;9.20;99.90;;;;;;5101961;28;20244;-33
2021/01/16 09:21:01;;;;;;;8.27;7.47;;;9.30;99.90;;;;;;5097458;28;20261;-29
2021/01/16 09:23:37;;;;;;;7.68;6.97;;;9.30;99.90;;;;;;5091555;28;20197;-30
2021/01/16 09:26:16;;;;;;;7.53;6.85;;;9.10;99.90;;;;;;5099955;28;20300;-30
2021/01/16 09:28:50;;;;;;;7.13;6.43;;;9.20;99.90;;;;;;5103418;28;20262;-32
2021/01/16 09:31:26;;;;;;;7.72;6.90;;;9.20;99.90;;;;;;5096393;28;20199;-30
2021/01/16 09:33:59;;;;;;;7.47;6.78;;;9.30;99.90;;;;;;5092849;28;20196;-30
2021/01/16 09:36:43;;;;;;;8.50;7.70;;;9.30;99.90;;;;;;5096878;28;20205;-32
2021/01/16 09:39:19;;;;;;;10.48;7.32;;;9.30;99.90;;;;;;5095553;28;20275;-31
2021/01/16 09:41:51;;;;;;;8.73;7.95;;;9.20;99.90;;;;;;5102530;28;20616;-31
2021/01/16 09:44:52;;;;;;;8.55;7.75;;;9.10;99.90;;;;;;5100550;28;20257;-33
2021/01/16 09:47:52;;;;;;;8.85;7.95;;;9.20;99.90;;;;;;5091815;28;20198;-32
2021/01/16 09:50:28;;;;;;;9.43;8.60;;;9.20;99.90;;;;;;5094935;28;20542;-34
2021/01/16 09:53:05;;;;;;;8.27;7.55;;;9.20;99.90;;;;;;5097281;28;20338;-30
2021/01/16 09:55:40;;;;;;;8.35;7.38;;;9.20;99.90;;;;;;5091940;28;20219;-32
2021/01/16 09:58:31;;;;;;;7.60;6.88;;;9.10;99.90;;;;;;5098701;28;20221;-32
2021/01/16 10:01:18;;;;;;;10.52;7.63;;;9.10;99.90;;;;;;5106963;28;20199;-32
2021/01/16 10:03:49;;;;;;;8.20;7.35;;;9.20;99.90;;;;;;5096223;28;20252;-35
2021/01/16 10:06:19;;;;;;;8.57;7.68;;;9.10;99.90;;;;;;5109229;28;20567;-29
2021/01/16 10:08:50;;;;;;;11.38;7.80;;;9.10;99.90;;;;;;5096922;28;20659;-30
2021/01/16 10:11:43;;;;;;;8.85;7.97;;;9.10;99.90;;;;;;5092336;28;20652;-33
2021/01/16 10:14:15;;;;;;;9.85;8.63;;;9.10;99.90;;;;;;5097270;28;20369;-33
2021/01/16 10:16:45;;;;;;;8.52;7.82;;;9.20;99.90;;;;;;5100801;28;20195;-31
2021/01/16 10:19:17;;;;;;;10.15;8.80;;;9.10;99.90;;;;;;5094748;28;20251;-33
2021/01/16 10:21:51;;;;;;;9.98;7.90;;;9.10;99.90;;;;;;5095595;28;20691;-33
2021/01/16 10:24:25;;;;;;;10.75;8.35;;;9.10;99.90;;;;;;5093528;28;20287;-30
2021/01/16 10:26:56;;;;;;;9.95;8.45;;;9.10;99.90;;;;;;5094859;28;20572;-30
2021/01/16 10:29:38;;;;;;;7.80;6.40;;;9.10;99.90;;;;;;5093807;28;20197;-27
2021/01/16 10:32:21;;;;;;;6.97;6.28;;;9.10;99.90;;;;;;5091322;28;20276;-28
2021/01/16 10:34:52;;;;;;;7.35;6.55;;;9.00;99.90;;;;;;5093493;28;20216;-29
2021/01/16 10:37:23;;;;;;;6.28;5.63;;;9.00;99.90;;;;;;5094331;28;20207;-28
2021/01/16 10:39:55;;;;;;;6.97;6.22;;;8.90;99.90;;;;;;5097299;28;20346;-31
2021/01/16 10:42:26;;;;;;;6.22;5.63;;;8.90;99.90;;;;;;5093543;28;20217;-34
2021/01/16 10:45:03;;;;;;;7.45;6.30;;;8.90;99.90;;;;;;5096253;28;20206;-31
2021/01/16 10:47:34;;;;;;;6.93;6.22;;;8.90;99.90;;;;;;5093707;28;20198;-29
2021/01/16 10:50:10;;;;;;;7.85;6.70;;;8.90;99.90;;;;;;5101044;28;20567;-31
2021/01/16 10:52:41;;;;;;;7.30;6.65;;;8.90;99.90;;;;;;5095756;28;20235;-33
2021/01/16 10:55:13;;;;;;;6.45;5.80;;;8.90;99.90;;;;;;5099463;28;20710;-31
2021/01/16 10:57:47;;;;;;;10.93;6.60;;;9.00;99.90;;;;;;5097372;28;20526;-32
2021/01/16 11:00:19;;;;;;;6.50;5.90;;;9.00;99.90;;;;;;5096536;28;20770;-30
2021/01/16 11:02:50;;;;;;;7.13;6.03;;;9.00;99.90;;;;;;5102865;28;20211;-29
2021/01/16 11:05:26;;;;;;;6.72;6.10;;;9.10;99.90;;;;;;5098892;28;20220;-31
2021/01/16 11:07:59;;;;;;;7.32;6.63;;;9.00;99.90;;;;;;5103565;28;20281;-29
2021/01/16 11:10:35;;;;;;;9.13;6.50;;;8.90;99.90;;;;;;5097252;28;20193;-30
2021/01/16 11:13:28;;;;;;;11.68;6.75;;;8.80;99.90;;;;;;5101672;28;20196;-32
2021/01/16 11:16:13;;;;;;;9.43;7.28;;;8.80;99.90;;;;;;5099967;28;20741;-33
2021/01/16 11:18:45;;;;;;;8.00;7.25;;;8.80;99.90;;;;;;5093950;28;20208;-28
2021/01/16 11:21:49;;;;;;;7.45;6.55;;;8.90;99.90;;;;;;5099944;28;20226;-27
2021/01/16 11:25:12;;;;;;;9.40;7.60;;;8.90;99.90;;;;;;5100561;28;20207;-32
2021/01/16 11:28:07;;;;;;;9.02;8.13;;;9.00;99.90;;;;;;5090403;28;20201;-34
2021/01/16 11:30:43;;;;;;;9.00;8.20;;;9.00;99.90;;;;;;5099669;28;20200;-33
2021/01/16 11:33:15;;;;;;;10.50;9.50;;;8.90;99.90;;;;;;5100596;28;20192;-33
2021/01/16 11:35:46;;;;;;;11.40;9.65;;;8.90;99.90;;;;;;5109093;28;20671;-29
2021/01/16 11:38:38;;;;;;;11.80;10.60;;;8.90;99.90;;;;;;5104644;28;20188;-33
2021/01/16 11:41:09;;;;;;;12.60;10.48;;;9.00;99.90;;;;;;5096124;28;20616;-31
2021/01/16 11:43:39;;;;;;;12.85;10.93;;;8.90;99.90;;;;;;5095836;28;20593;-34
2021/01/16 11:46:13;;;;;;;13.30;11.93;;;8.80;99.90;;;;;;5096908;28;20188;-30
2021/01/16 11:48:44;;;;;;;13.02;11.73;;;8.80;99.90;;;;;;5104804;28;20674;-33
2021/01/16 11:51:18;;;;;;;18.35;14.25;;;8.80;99.90;;;;;;5099548;28;20212;-33
2021/01/16 11:53:50;;;;;;;16.30;14.60;;;8.70;99.90;;;;;;5095048;28;20231;-28
2021/01/16 11:56:22;;;;;;;15.10;12.60;;;8.70;99.90;;;;;;5106610;28;20751;-30
2021/01/16 11:58:53;;;;;;;15.77;13.07;;;8.80;99.90;;;;;;5104008;28;20621;-34
2021/01/16 12:01:24;;;;;;;15.32;13.73;;;8.80;99.90;;;;;;5099987;27;20265;-35
2021/01/16 12:04:03;;;;;;;15.48;13.88;;;8.70;99.90;;;;;;5099907;28;20228;-35
2021/01/16 12:06:33;;;;;;;15.60;14.00;;;8.80;99.90;;;;;;5099363;28;20197;-30
2021/01/16 12:09:03;;;;;;;15.32;13.73;;;8.80;99.90;;;;;;5100520;28;20197;-31
2021/01/16 12:11:35;;;;;;;17.50;13.48;;;8.80;99.90;;;;;;5107648;28;20204;-28
2021/01/16 12:14:05;;;;;;;13.73;11.65;;;8.60;99.90;;;;;;5104291;28;20638;-33
2021/01/16 12:16:37;;;;;;;13.55;11.77;;;8.60;99.90;;;;;;5094782;28;20308;-30
2021/01/16 12:19:10;;;;;;;14.45;12.50;;;8.70;99.90;;;;;;5099945;28;20297;-31
2021/01/16 12:21:42;;;;;;;13.27;11.52;;;8.70;99.90;;;;;;5097957;28;20205;-31
2021/01/16 12:24:14;;;;;;;12.57;11.27;;;8.70;99.90;;;;;;5094409;28;20246;-30
2021/01/16 12:26:51;;;;;;;13.40;12.10;;;8.70;99.90;;;;;;5101146;28;20229;-33
2021/01/16 12:29:27;;;;;;;11.43;10.32;;;8.70;99.90;;;;;;5104568;28;20221;-31
2021/01/16 12:32:06;;;;;;;11.00;9.48;;;8.70;99.90;;;;;;5092638;28;20194;-33
2021/01/16 12:34:45;;;;;;;12.38;11.02;;;8.70;99.90;;;;;;5101086;28;20184;-33
2021/01/16 12:37:15;;;;;;;10.70;9.70;;;8.60;99.90;;;;;;5099905;28;20189;-29
2021/01/16 12:39:46;;;;;;;10.30;9.30;;;8.50;99.90;;;;;;5097757;28;20196;-30
2021/01/16 12:42:16;;;;;;;11.38;9.65;;;8.50;99.90;;;;;;5103893;28;20211;-29
2021/01/16 12:44:46;;;;;;;10.52;8.77;;;8.50;99.90;;;;;;5107159;28;20202;-27
2021/01/16 12:47:22;;;;;;;10.52;9.50;;;8.50;99.90;;;;;;5092752;28;20257;-28
2021/01/16 12:49:53;;;;;;;9.13;8.23;;;8.50;99.90;;;;;;5093436;28;20680;-33
2021/01/16 12:52:27;;;;;;;8.80;8.00;;;8.50;99.90;;;;;;5103961;28;20403;-33
2021/01/16 12:55:06;;;;;;;8.70;7.90;;;8.50;99.90;;;;;;5098348;28;20280;-31
2021/01/16 12:57:38;;;;;;;9.30;8.48;;;8.50;99.90;;;;;;5099437;28;20227;-30
2021/01/16 13:00:09;;;;;;;8.15;7.40;;;8.30;99.90;;;;;;5104114;28;20593;-31
2021/01/16 13:02:41;;;;;;;7.57;6.88;;;8.30;99.90;;;;;;5099910;28;20257;-29
2021/01/16 13:05:13;;;;;;;7.32;6.72;;;8.30;99.90;;;;;;5101682;28;20327;-35
2021/01/16 13:07:43;;;;;;;6.90;6.28;;;8.20;99.90;;;;;;5093680;28;20189;-28
2021/01/16 13:10:17;;;;;;;7.00;6.30;;;8.10;99.90;;;;;;5097588;28;20607;-32
2021/01/16 13:12:47;;;;;;;6.85;6.15;;;8.10;99.90;;;;;;5099166;28;20527;-32
2021/01/16 13:15:37;;;;;;;6.53;5.93;;;8.10;99.90;;;;;;5097574;28;20323;-31